Terminal Aerodrome Forecast
Issued by NWS

Home | Current Version | Previous Version | Text Only | Print | Product List | Glossary On
Versions: 1 2 3 4 5 6 7 8 9 10 11 12 13 14 15 16 17 18 19 20 21 22 23 24 25
000
FTUS46 KSEW 031302 AAA
TAFSEA
TAF AMD
KSEA 031302Z 0313/0418 19007KT P6SM SCT100
      TEMPO 0313/0315 BKN100
     FM031800 24007KT P6SM SCT110 BKN220
     FM040000 24010G18KT P6SM VCSH BKN050 OVC110
     FM040600 34006KT P6SM VCSH BKN040 OVC080
     FM041200 01006KT P6SM OVC018=

USA.gov is the U.S. government's official web portal to all federal, state and local government web resources and services.